createdAt,value
2018-06-21T00:00:43.011Z,18.60
2018-06-21T00:03:12.916Z,18.70
2018-06-21T00:05:42.122Z,18.80
2018-06-21T00:08:11.303Z,18.70
2018-06-21T00:10:40.502Z,18.50
2018-06-21T00:13:09.758Z,18.70
2018-06-21T00:15:38.988Z,18.80
2018-06-21T00:18:08.169Z,18.60
2018-06-21T00:20:37.353Z,18.90
2018-06-21T00:23:06.575Z,19.00
2018-06-21T00:25:35.793Z,18.80
2018-06-21T00:28:04.988Z,18.80
2018-06-21T00:30:34.202Z,18.60
2018-06-21T00:33:03.425Z,18.80
2018-06-21T00:35:32.636Z,18.90
2018-06-21T00:38:01.877Z,18.70
2018-06-21T00:40:31.123Z,18.50
2018-06-21T00:43:00.326Z,18.30
2018-06-21T00:45:29.539Z,18.30
2018-06-21T00:47:59.026Z,18.00
2018-06-21T00:50:28.186Z,18.30
2018-06-21T00:52:57.413Z,18.50
2018-06-21T00:55:37.733Z,18.20
2018-06-21T00:58:06.907Z,18.00
2018-06-21T01:00:36.114Z,17.90
2018-06-21T01:03:05.294Z,18.20
2018-06-21T01:05:34.487Z,18.20
2018-06-21T01:08:03.696Z,18.50
2018-06-21T01:10:32.859Z,18.30
2018-06-21T01:13:02.050Z,18.20
2018-06-21T01:15:31.244Z,17.80
2018-06-21T01:18:00.474Z,18.10
2018-06-21T01:20:29.635Z,18.30
2018-06-21T01:22:58.856Z,18.10
2018-06-21T01:25:28.043Z,17.60
2018-06-21T01:27:57.241Z,17.30
2018-06-21T01:30:26.405Z,17.30
2018-06-21T01:32:55.598Z,17.70
2018-06-21T01:35:24.721Z,17.80
2018-06-21T01:37:53.908Z,18.00
2018-06-21T01:40:23.050Z,18.10
2018-06-21T01:42:52.213Z,18.10
2018-06-21T01:45:21.353Z,18.00
2018-06-21T01:47:50.524Z,17.60
2018-06-21T01:50:19.696Z,17.20
2018-06-21T01:52:48.887Z,17.50
2018-06-21T01:55:18.049Z,17.90
2018-06-21T01:57:47.234Z,18.00
2018-06-21T02:00:16.382Z,17.80
2018-06-21T02:02:45.564Z,17.40
2018-06-21T02:05:14.707Z,17.50
2018-06-21T02:07:43.878Z,17.80
2018-06-21T02:10:13.051Z,18.00
2018-06-21T02:12:42.182Z,18.10
2018-06-21T02:15:11.338Z,17.80
2018-06-21T02:17:40.784Z,17.80
2018-06-21T02:20:09.955Z,17.90
2018-06-21T02:22:39.101Z,17.80
2018-06-21T02:25:08.313Z,17.80
2018-06-21T02:27:37.495Z,17.80
2018-06-21T02:30:06.769Z,17.80
2018-06-21T02:32:35.944Z,17.70
2018-06-21T02:35:05.310Z,17.30
2018-06-21T02:37:34.514Z,17.60
2018-06-21T02:40:03.799Z,17.70
2018-06-21T02:42:32.974Z,17.80
2018-06-21T02:45:02.162Z,17.90
2018-06-21T02:47:31.298Z,17.90
2018-06-21T02:50:00.478Z,17.70
2018-06-21T02:52:29.643Z,17.20
2018-06-21T02:54:58.824Z,17.30
2018-06-21T02:57:27.950Z,17.50
2018-06-21T02:59:57.136Z,17.30
2018-06-21T03:02:26.283Z,17.30
2018-06-21T03:04:55.438Z,17.00
2018-06-21T03:07:24.598Z,17.20
2018-06-21T03:09:53.751Z,17.40
2018-06-21T03:12:24.040Z,17.20
2018-06-21T03:14:54.598Z,17.00
2018-06-21T03:17:23.848Z,16.80
2018-06-21T03:19:53.063Z,17.00
2018-06-21T03:22:22.262Z,17.30
2018-06-21T03:24:51.433Z,17.50
2018-06-21T03:27:20.933Z,17.00
2018-06-21T03:29:50.082Z,16.90
2018-06-21T03:32:19.309Z,16.90
2018-06-21T03:34:48.426Z,16.60
2018-06-21T03:37:17.602Z,16.30
2018-06-21T03:39:46.758Z,16.30
2018-06-21T03:42:15.930Z,16.70
2018-06-21T03:44:45.061Z,17.10
2018-06-21T03:47:14.246Z,16.80
2018-06-21T03:49:43.377Z,16.80
2018-06-21T03:52:12.557Z,17.10
2018-06-21T03:54:41.694Z,17.10
2018-06-21T03:57:11.041Z,16.70
2018-06-21T03:59:40.179Z,16.60
2018-06-21T04:02:09.351Z,16.90
2018-06-21T04:04:38.492Z,17.30
2018-06-21T04:07:07.835Z,17.30
2018-06-21T04:09:37.042Z,17.30
2018-06-21T04:12:07.018Z,17.30
2018-06-21T04:14:36.163Z,17.40
2018-06-21T04:17:05.383Z,16.90
2018-06-21T04:19:34.566Z,17.00
2018-06-21T04:22:03.772Z,17.00
2018-06-21T04:24:32.933Z,17.20
2018-06-21T04:27:02.130Z,17.30
2018-06-21T04:29:31.322Z,17.30
2018-06-21T04:32:00.498Z,17.40
2018-06-21T04:34:29.655Z,17.40
2018-06-21T04:36:58.867Z,17.40
2018-06-21T04:39:28.053Z,17.60
2018-06-21T04:41:57.252Z,17.50
2018-06-21T04:44:26.450Z,17.50
2018-06-21T04:49:24.409Z,17.80
2018-06-21T04:51:53.610Z,17.80
2018-06-21T04:54:22.804Z,17.60
2018-06-21T04:56:51.978Z,17.60
2018-06-21T04:59:21.114Z,17.80
2018-06-21T05:01:50.293Z,18.00
2018-06-21T05:04:19.481Z,18.20
2018-06-21T05:06:48.731Z,18.30
2018-06-21T05:09:17.922Z,18.40
2018-06-21T05:11:47.084Z,18.50
2018-06-21T05:14:16.278Z,18.50
2018-06-21T05:16:45.807Z,18.70
2018-06-21T05:19:15.008Z,18.90
2018-06-21T05:21:44.174Z,18.90
2018-06-21T05:24:13.374Z,19.10
2018-06-21T05:26:42.536Z,19.20
2018-06-21T05:29:11.722Z,19.20
2018-06-21T05:31:40.919Z,19.40
2018-06-21T05:34:10.082Z,19.40
2018-06-21T05:36:39.246Z,19.50
2018-06-21T05:39:10.028Z,19.60
2018-06-21T05:41:39.197Z,19.70
2018-06-21T05:44:08.722Z,19.80
2018-06-21T05:46:37.922Z,19.90
2018-06-21T05:49:07.078Z,20.00
2018-06-21T05:51:36.214Z,20.10
2018-06-21T05:54:05.522Z,20.20
2018-06-21T05:56:34.743Z,20.40
2018-06-21T05:59:03.897Z,20.50
2018-06-21T06:01:33.062Z,20.60
2018-06-21T06:04:02.234Z,20.60
2018-06-21T06:06:31.394Z,20.70
2018-06-21T06:11:29.339Z,20.80
2018-06-21T06:13:58.575Z,20.70
2018-06-21T06:16:27.774Z,20.90
2018-06-21T06:18:56.930Z,21.00
2018-06-21T06:21:26.111Z,21.10
2018-06-21T06:23:55.276Z,21.00
2018-06-21T06:26:24.486Z,21.00
2018-06-21T06:28:53.830Z,21.10
2018-06-21T06:31:23.007Z,21.20
2018-06-21T06:33:52.135Z,21.40
2018-06-21T06:36:21.316Z,21.60
2018-06-21T06:38:50.474Z,21.80
2018-06-21T06:41:19.634Z,21.90
2018-06-21T06:43:48.767Z,22.00
2018-06-21T06:46:18.026Z,22.10
2018-06-21T06:48:47.114Z,22.20
2018-06-21T06:51:16.284Z,22.20
2018-06-21T06:53:45.434Z,22.30
2018-06-21T06:56:14.603Z,22.30
2018-06-21T06:58:43.735Z,22.40
2018-06-21T07:01:12.908Z,22.50
2018-06-21T07:03:42.050Z,22.50
2018-06-21T07:06:11.275Z,22.60
2018-06-21T07:08:40.453Z,22.70
2018-06-21T07:11:09.741Z,22.70
2018-06-21T07:13:38.878Z,22.80
2018-06-21T07:16:08.126Z,23.00
2018-06-21T07:18:37.289Z,23.10
2018-06-21T07:21:06.567Z,23.20
2018-06-21T07:23:35.758Z,23.20
2018-06-21T07:26:04.938Z,23.30
2018-06-21T07:28:34.098Z,23.40
2018-06-21T07:31:03.250Z,23.40
2018-06-21T07:33:32.489Z,23.60
2018-06-21T07:36:01.659Z,23.60
2018-06-21T07:38:30.830Z,23.70
2018-06-21T07:41:00.046Z,23.70
2018-06-21T07:43:29.195Z,23.90
2018-06-21T07:45:58.386Z,23.90
2018-06-21T07:48:27.845Z,24.10
2018-06-21T07:53:25.807Z,24.10
2018-06-21T07:55:55.019Z,24.30
2018-06-21T07:58:24.210Z,24.40
2018-06-21T08:00:53.387Z,24.40
2018-06-21T08:03:22.563Z,24.60
2018-06-21T08:05:51.709Z,24.60
2018-06-21T08:08:20.887Z,24.60
2018-06-21T08:10:50.017Z,24.80
2018-06-21T08:13:19.170Z,24.90
2018-06-21T08:15:48.331Z,24.90
2018-06-21T08:18:17.506Z,25.10
2018-06-21T08:20:46.677Z,25.30
2018-06-21T08:25:46.455Z,25.50
2018-06-21T08:28:15.958Z,25.70
2018-06-21T08:30:45.139Z,26.00
2018-06-21T08:33:14.382Z,26.10
2018-06-21T08:35:43.593Z,26.30
2018-06-21T08:38:12.821Z,26.40
2018-06-21T08:40:41.982Z,26.40
2018-06-21T08:43:11.187Z,26.40
2018-06-21T08:45:40.374Z,26.50
2018-06-21T08:48:09.575Z,26.60
2018-06-21T08:50:38.978Z,26.60
2018-06-21T08:53:08.159Z,26.60
2018-06-21T08:55:37.327Z,26.70
2018-06-21T08:58:06.512Z,26.80
2018-06-21T09:00:35.675Z,26.90
2018-06-21T09:03:04.918Z,27.00
2018-06-21T09:05:34.180Z,27.20
2018-06-21T09:08:03.344Z,27.30
2018-06-21T09:10:32.539Z,27.30
2018-06-21T09:13:01.687Z,27.30
2018-06-21T09:15:30.846Z,27.40
2018-06-21T09:18:00.004Z,27.50
2018-06-21T09:20:29.158Z,27.60
2018-06-21T09:22:58.293Z,27.50
2018-06-21T09:25:27.450Z,27.60
2018-06-21T09:27:56.602Z,27.60
2018-06-21T09:30:25.817Z,27.50
2018-06-21T09:32:54.959Z,27.60
2018-06-21T09:35:24.134Z,27.80
2018-06-21T09:37:58.605Z,27.90
2018-06-21T09:40:33.075Z,28.20
2018-06-21T09:43:07.627Z,28.30
2018-06-21T09:45:42.286Z,28.20
2018-06-21T09:48:16.798Z,27.80
2018-06-21T09:53:14.779Z,28.30
2018-06-21T09:55:44.103Z,28.30
2018-06-21T09:58:13.275Z,28.30
2018-06-21T10:00:47.880Z,28.40
2018-06-21T10:03:17.618Z,28.50
2018-06-21T10:05:46.872Z,28.60
2018-06-21T10:08:16.043Z,28.50
2018-06-21T10:10:45.225Z,28.40
2018-06-21T10:13:14.362Z,28.70
2018-06-21T10:15:43.623Z,28.60
2018-06-21T10:18:12.743Z,28.60
2018-06-21T10:20:41.962Z,28.50
2018-06-21T10:23:11.277Z,28.40
2018-06-21T10:25:40.484Z,28.80
2018-06-21T10:28:09.640Z,28.90
2018-06-21T10:30:38.805Z,29.00
2018-06-21T10:33:07.971Z,29.00
2018-06-21T10:35:37.278Z,29.20
2018-06-21T10:38:06.474Z,29.10
2018-06-21T10:40:35.629Z,29.10
2018-06-21T10:43:04.782Z,29.00
2018-06-21T10:45:33.970Z,29.10
2018-06-21T10:48:03.151Z,29.10
2018-06-21T10:50:32.355Z,29.30
2018-06-21T10:53:01.521Z,29.40
2018-06-21T10:55:30.958Z,29.40
2018-06-21T10:58:00.122Z,29.40
2018-06-21T11:00:29.331Z,29.40
2018-06-21T11:05:27.242Z,29.70
2018-06-21T11:07:56.446Z,29.90
2018-06-21T11:10:25.597Z,29.70
2018-06-21T11:12:54.783Z,29.80
2018-06-21T11:15:23.979Z,29.90
2018-06-21T11:17:53.145Z,30.00
2018-06-21T11:20:22.584Z,29.90
2018-06-21T11:22:51.758Z,30.10
2018-06-21T11:25:21.079Z,30.10
2018-06-21T11:27:50.444Z,30.00
2018-06-21T11:30:19.452Z,30.10
2018-06-21T11:32:48.602Z,30.20
2018-06-21T11:35:17.770Z,30.20
2018-06-21T11:37:46.958Z,30.30
2018-06-21T11:40:16.111Z,30.20
2018-06-21T11:42:45.298Z,30.20
2018-06-21T11:45:14.472Z,30.10
2018-06-21T11:47:43.643Z,29.90
2018-06-21T11:50:12.805Z,29.90
2018-06-21T11:52:41.998Z,29.80
2018-06-21T11:55:11.179Z,29.80
2018-06-21T11:57:40.534Z,29.80
2018-06-21T12:00:09.707Z,29.80
2018-06-21T12:02:38.915Z,29.90
2018-06-21T12:05:08.115Z,30.00
2018-06-21T12:07:37.267Z,30.30
2018-06-21T12:10:06.446Z,30.40
2018-06-21T12:12:35.621Z,30.40
2018-06-21T12:15:04.851Z,30.60
2018-06-21T12:17:34.140Z,30.40
2018-06-21T12:20:03.322Z,30.40
2018-06-21T12:22:32.690Z,30.30
2018-06-21T12:25:01.863Z,30.20
2018-06-21T12:27:31.025Z,30.30
2018-06-21T12:30:00.185Z,30.40
2018-06-21T12:32:29.329Z,30.50
2018-06-21T12:34:58.539Z,30.40
2018-06-21T12:37:27.706Z,30.60
2018-06-21T12:39:56.899Z,30.70
2018-06-21T12:42:26.097Z,30.30
2018-06-21T12:44:55.273Z,30.60
2018-06-21T12:47:24.474Z,30.70
2018-06-21T12:49:53.683Z,30.60
2018-06-21T12:52:22.864Z,30.20
2018-06-21T12:54:52.069Z,29.80
2018-06-21T12:57:21.245Z,29.50
2018-06-21T12:59:50.447Z,29.30
2018-06-21T13:02:19.617Z,29.50
2018-06-21T13:04:48.814Z,29.40
2018-06-21T13:07:17.991Z,29.30
2018-06-21T13:09:58.494Z,29.30
2018-06-21T13:12:39.856Z,29.60
2018-06-21T13:15:09.070Z,29.90
2018-06-21T13:17:38.249Z,30.00
2018-06-21T13:20:08.322Z,29.90
2018-06-21T13:22:37.522Z,29.90
2018-06-21T13:25:06.867Z,29.70
2018-06-21T13:27:36.037Z,29.60
2018-06-21T13:30:06.827Z,29.90
2018-06-21T13:32:36.028Z,30.00
2018-06-21T13:35:05.916Z,30.10
2018-06-21T13:37:35.122Z,30.10
2018-06-21T13:40:04.832Z,30.00
2018-06-21T13:42:34.084Z,30.00
2018-06-21T13:45:03.331Z,30.20
2018-06-21T13:47:32.710Z,30.30
2018-06-21T13:52:30.683Z,30.20
2018-06-21T13:54:59.878Z,30.20
2018-06-21T13:57:29.059Z,30.20
2018-06-21T13:59:58.226Z,30.20
2018-06-21T14:02:27.434Z,30.30
2018-06-21T14:04:56.673Z,30.10
2018-06-21T14:07:25.886Z,29.90
2018-06-21T14:09:55.043Z,29.80
2018-06-21T14:12:24.218Z,29.60
2018-06-21T14:14:53.487Z,29.40
2018-06-21T14:17:22.666Z,29.10
2018-06-21T14:19:51.819Z,28.90
2018-06-21T14:22:20.997Z,29.00
2018-06-21T14:24:50.152Z,29.10
2018-06-21T14:27:19.338Z,29.20
2018-06-21T14:29:48.489Z,29.20
2018-06-21T14:32:17.698Z,29.40
2018-06-21T14:34:46.867Z,29.70
2018-06-21T14:37:16.052Z,29.70
2018-06-21T14:39:45.254Z,29.70
2018-06-21T14:42:14.417Z,29.80
2018-06-21T14:44:43.625Z,29.80
2018-06-21T14:47:12.878Z,29.80
2018-06-21T14:49:42.210Z,29.70
2018-06-21T14:52:11.383Z,29.50
2018-06-21T14:54:40.619Z,29.40
2018-06-21T14:57:09.911Z,29.20
2018-06-21T14:59:39.014Z,29.10
2018-06-21T15:02:08.222Z,29.10
2018-06-21T15:04:37.403Z,29.20
2018-06-21T15:07:06.606Z,29.20
2018-06-21T15:09:35.750Z,29.30
2018-06-21T15:12:04.963Z,29.20
2018-06-21T15:14:34.161Z,29.10
2018-06-21T15:17:04.042Z,29.10
2018-06-21T15:19:33.226Z,29.10
2018-06-21T15:22:02.379Z,29.10
2018-06-21T15:24:31.639Z,28.90
2018-06-21T15:27:01.354Z,28.90
2018-06-21T15:29:30.553Z,29.00
2018-06-21T15:31:59.730Z,29.10
2018-06-21T15:34:29.080Z,29.00
2018-06-21T15:36:58.200Z,28.90
2018-06-21T15:39:27.850Z,28.90
2018-06-21T15:41:57.016Z,28.70
2018-06-21T15:44:26.752Z,28.60
2018-06-21T15:46:56.541Z,28.40
2018-06-21T15:49:25.706Z,28.30
2018-06-21T15:51:54.926Z,28.40
2018-06-21T15:54:24.202Z,28.40
2018-06-21T15:56:53.506Z,28.30
2018-06-21T15:59:22.676Z,28.20
2018-06-21T16:01:51.860Z,28.10
2018-06-21T16:04:21.055Z,28.00
2018-06-21T16:06:50.218Z,27.90
2018-06-21T16:09:19.459Z,27.80
2018-06-21T16:11:48.619Z,27.70
2018-06-21T16:14:17.797Z,27.70
2018-06-21T16:16:46.977Z,27.70
2018-06-21T16:19:16.159Z,27.70
2018-06-21T16:21:45.315Z,27.60
2018-06-21T16:24:14.515Z,27.60
2018-06-21T16:26:43.654Z,27.50
2018-06-21T16:29:19.224Z,27.40
2018-06-21T16:31:48.531Z,27.30
2018-06-21T16:34:17.722Z,27.20
2018-06-21T16:36:46.919Z,27.10
2018-06-21T16:39:16.175Z,27.00
2018-06-21T16:41:45.382Z,27.00
2018-06-21T16:44:14.626Z,26.90
2018-06-21T16:46:43.822Z,26.80
2018-06-21T16:49:12.970Z,26.80
2018-06-21T16:51:42.186Z,26.80
2018-06-21T16:54:11.335Z,26.80
2018-06-21T16:56:41.083Z,26.90
2018-06-21T16:59:10.246Z,26.90
2018-06-21T17:01:39.448Z,26.80
2018-06-21T17:04:08.663Z,26.70
2018-06-21T17:06:37.979Z,26.70
2018-06-21T17:09:08.458Z,26.60
2018-06-21T17:11:37.984Z,26.50
2018-06-21T17:14:07.127Z,26.50
2018-06-21T17:16:36.598Z,26.50
2018-06-21T17:19:05.980Z,26.50
2018-06-21T17:21:35.185Z,26.40
2018-06-21T17:24:04.458Z,26.30
2018-06-21T17:26:33.659Z,26.20
2018-06-21T17:29:02.867Z,26.10
2018-06-21T17:31:32.103Z,26.00
2018-06-21T17:34:01.275Z,25.80
2018-06-21T17:36:30.481Z,25.80
2018-06-21T17:38:59.673Z,25.90
2018-06-21T17:41:28.901Z,25.90
2018-06-21T17:43:58.067Z,25.70
2018-06-21T17:46:27.550Z,25.60
2018-06-21T17:48:56.856Z,25.60
2018-06-21T17:51:26.112Z,25.60
2018-06-21T17:56:24.310Z,25.50
2018-06-21T17:58:53.480Z,25.40
2018-06-21T18:01:22.674Z,25.40
2018-06-21T18:03:51.921Z,25.30
2018-06-21T18:06:21.159Z,25.30
2018-06-21T18:08:51.054Z,25.20
2018-06-21T18:11:20.299Z,25.20
2018-06-21T18:13:49.604Z,25.20
2018-06-21T18:16:18.890Z,25.10
2018-06-21T18:18:48.093Z,24.90
2018-06-21T18:21:18.706Z,24.70
2018-06-21T18:23:48.148Z,24.80
2018-06-21T18:26:18.143Z,24.70
2018-06-21T18:28:47.351Z,24.60
2018-06-21T18:31:16.577Z,24.60
2018-06-21T18:33:46.038Z,24.50
2018-06-21T18:36:15.198Z,24.50
2018-06-21T18:38:44.370Z,24.40
2018-06-21T18:41:13.582Z,24.40
2018-06-21T18:43:42.902Z,24.30
2018-06-21T18:46:12.124Z,24.20
2018-06-21T18:48:41.426Z,24.10
2018-06-21T18:51:10.756Z,24.10
2018-06-21T18:53:40.147Z,24.20
2018-06-21T18:56:09.377Z,24.00
2018-06-21T18:58:38.986Z,24.10
2018-06-21T19:01:08.553Z,24.10
2018-06-21T19:03:37.981Z,24.00
2018-06-21T19:06:11.506Z,24.00
2018-06-21T19:08:46.210Z,23.90
2018-06-21T19:11:20.902Z,23.90
2018-06-21T19:13:50.535Z,23.90
2018-06-21T19:16:21.698Z,23.80
2018-06-21T19:18:51.406Z,23.80
2018-06-21T19:21:20.747Z,23.80
2018-06-21T19:23:49.955Z,23.80
2018-06-21T19:26:19.482Z,23.80
2018-06-21T19:28:48.663Z,23.60
2018-06-21T19:31:17.934Z,23.30
2018-06-21T19:33:47.455Z,23.30
2018-06-21T19:36:16.743Z,23.40
2018-06-21T19:38:46.816Z,23.40
2018-06-21T19:41:16.248Z,23.40
2018-06-21T19:43:45.446Z,23.20
2018-06-21T19:46:15.050Z,23.20
2018-06-21T19:48:44.596Z,23.20
2018-06-21T19:51:14.769Z,23.20
2018-06-21T19:53:43.977Z,22.90
2018-06-21T19:56:14.221Z,22.90
2018-06-21T19:58:43.411Z,22.90
2018-06-21T20:01:12.590Z,22.90
2018-06-21T20:03:41.814Z,23.00
2018-06-21T20:06:11.386Z,22.90
2018-06-21T20:08:40.651Z,22.80
2018-06-21T20:11:15.130Z,22.70
2018-06-21T20:13:47.189Z,22.70
2018-06-21T20:16:16.934Z,22.70
2018-06-21T20:18:46.202Z,22.70
2018-06-21T20:21:17.378Z,22.60
2018-06-21T20:23:47.885Z,22.60
2018-06-21T20:26:17.805Z,22.60
2018-06-21T20:31:17.855Z,22.60
2018-06-21T20:33:47.926Z,22.60
2018-06-21T20:36:17.765Z,22.50
2018-06-21T20:38:46.945Z,22.50
2018-06-21T20:41:16.143Z,22.40
2018-06-21T20:43:45.353Z,22.40
2018-06-21T20:46:14.548Z,22.50
2018-06-21T20:48:43.748Z,22.30
2018-06-21T20:51:14.280Z,22.30
2018-06-21T20:53:43.580Z,22.20
2018-06-21T20:56:12.838Z,22.20
2018-06-21T20:58:42.014Z,22.20
2018-06-21T21:01:11.171Z,22.10
2018-06-21T21:03:40.511Z,22.10
2018-06-21T21:06:09.652Z,22.10
2018-06-21T21:08:38.809Z,22.00
2018-06-21T21:11:08.011Z,21.80
2018-06-21T21:13:37.231Z,21.70
2018-06-21T21:16:06.458Z,21.60
2018-06-21T21:18:35.632Z,21.50
2018-06-21T21:21:04.872Z,21.40
2018-06-21T21:23:35.033Z,21.10
2018-06-21T21:26:04.246Z,20.80
2018-06-21T21:28:33.406Z,20.80
2018-06-21T21:31:02.628Z,21.00
2018-06-21T21:33:31.845Z,21.00
2018-06-21T21:36:01.079Z,20.70
2018-06-21T21:38:30.338Z,20.70
2018-06-21T21:40:59.514Z,20.80
2018-06-21T21:43:28.685Z,20.60
2018-06-21T21:45:57.836Z,20.60
2018-06-21T21:48:26.998Z,20.40
2018-06-21T21:50:56.168Z,20.10
2018-06-21T21:53:25.345Z,20.20
2018-06-21T21:55:54.485Z,20.20
2018-06-21T21:58:23.658Z,20.20
2018-06-21T22:00:53.949Z,20.00
2018-06-21T22:03:23.106Z,20.00
2018-06-21T22:05:52.252Z,19.90
2018-06-21T22:08:21.414Z,19.80
2018-06-21T22:10:50.615Z,19.80
2018-06-21T22:13:19.766Z,19.90
2018-06-21T22:15:48.926Z,19.50
2018-06-21T22:18:18.154Z,19.40
2018-06-21T22:20:47.298Z,19.10
2018-06-21T22:23:16.481Z,19.20
2018-06-21T22:25:45.655Z,19.20
2018-06-21T22:28:14.824Z,19.00
2018-06-21T22:30:43.958Z,19.00
2018-06-21T22:33:13.152Z,18.90
2018-06-21T22:35:42.294Z,18.80
2018-06-21T22:38:11.471Z,18.90
2018-06-21T22:40:40.607Z,18.70
2018-06-21T22:43:09.839Z,18.80
2018-06-21T22:45:39.007Z,19.00
2018-06-21T22:48:08.146Z,18.90
2018-06-21T22:50:37.355Z,19.00
2018-06-21T22:53:06.502Z,19.00
2018-06-21T22:55:35.665Z,18.80
2018-06-21T22:58:04.922Z,18.70
2018-06-21T23:00:34.090Z,18.80
2018-06-21T23:03:03.282Z,18.70
2018-06-21T23:05:32.522Z,18.70
2018-06-21T23:08:01.618Z,18.80
2018-06-21T23:10:30.803Z,18.90
2018-06-21T23:12:59.950Z,18.70
2018-06-21T23:15:29.138Z,18.80
2018-06-21T23:17:58.466Z,18.80
2018-06-21T23:20:27.670Z,18.60
2018-06-21T23:22:56.873Z,18.50
2018-06-21T23:25:26.043Z,18.40
2018-06-21T23:27:55.195Z,18.40
2018-06-21T23:30:24.358Z,18.50
2018-06-21T23:32:53.513Z,18.50
2018-06-21T23:35:22.691Z,18.50
2018-06-21T23:37:51.843Z,18.50
2018-06-21T23:40:21.002Z,18.40
2018-06-21T23:42:50.162Z,18.10
2018-06-21T23:45:19.317Z,18.10
2018-06-21T23:47:48.493Z,18.20
2018-06-21T23:50:17.672Z,18.30
2018-06-21T23:52:46.811Z,17.80
2018-06-21T23:55:15.968Z,17.70
2018-06-21T23:57:45.201Z,18.10
